Time;durP1;ratioP1;P1;durP2;ratioP2;P2;SDS_P1;SDS_P2;PMS_P1;PMS_P2;Temp;Humidity;BMP_temperature;BMP_pressure;BME280_temperature;BME280_humidity;BME280_pressure;Samples;Min_cycle;Max_cycle;Signal;HPM_P1;HPM_P2
2023/04/29 00:00:14;;;;;;;6.07;3.42;;;14.00;99.90;;;14.10;100.00;100695.13;5137108;28;20065;-67
2023/04/29 00:02:47;;;;;;;6.63;3.45;;;14.00;99.90;;;14.07;100.00;100700.28;5146110;28;20039;-67
2023/04/29 00:05:19;;;;;;;6.70;3.30;;;14.00;99.90;;;14.07;100.00;100706.41;5142431;28;20038;-68
2023/04/29 00:07:51;;;;;;;5.95;3.30;;;14.00;99.90;;;14.07;100.00;100708.16;5135575;28;20118;-69
2023/04/29 00:10:23;;;;;;;7.75;4.22;;;14.00;99.90;;;14.02;100.00;100708.09;5150695;28;20042;-68
2023/04/29 00:12:55;;;;;;;8.05;3.83;;;14.00;99.90;;;14.01;100.00;100705.41;5151048;28;20495;-68
2023/04/29 00:15:28;;;;;;;8.48;4.85;;;13.90;99.90;;;14.00;100.00;100711.53;5143047;28;20047;-68
2023/04/29 00:18:00;;;;;;;9.32;4.95;;;13.90;99.90;;;13.99;100.00;100717.63;5148825;28;20042;-66
2023/04/29 00:20:33;;;;;;;9.20;4.53;;;13.90;99.90;;;13.94;100.00;100714.91;5144670;28;20049;-67
2023/04/29 00:23:06;;;;;;;8.75;4.47;;;13.90;99.90;;;13.91;100.00;100721.84;5151145;28;20043;-66
2023/04/29 00:25:38;;;;;;;8.73;3.90;;;13.80;99.90;;;13.88;100.00;100721.75;5142792;28;20454;-68
2023/04/29 00:28:10;;;;;;;7.80;4.13;;;13.80;99.90;;;13.87;100.00;100718.25;5150511;28;20043;-68
2023/04/29 00:30:43;;;;;;;6.88;3.83;;;13.80;99.90;;;13.87;100.00;100717.38;5144882;28;20046;-69
2023/04/29 00:33:15;;;;;;;9.07;4.40;;;13.80;99.90;;;13.86;100.00;100734.81;5150550;28;20065;-67
2023/04/29 00:35:48;;;;;;;11.13;5.20;;;13.70;99.90;;;13.85;100.00;100730.44;5152523;28;20043;-67
2023/04/29 00:38:20;;;;;;;8.65;4.43;;;13.70;99.90;;;13.85;100.00;100736.56;5146449;28;20509;-68
2023/04/29 00:40:52;;;;;;;9.73;5.13;;;13.70;99.90;;;13.83;100.00;100740.91;5147704;28;20050;-67
2023/04/29 00:43:24;;;;;;;11.02;5.70;;;13.70;99.90;;;13.80;100.00;100743.44;5149999;28;20046;-67
2023/04/29 00:45:58;;;;;;;12.63;5.82;;;13.70;99.90;;;13.76;100.00;100751.22;5147395;28;20047;-67
2023/04/29 00:48:31;;;;;;;;;;;13.70;99.90;;;13.71;100.00;100743.25;5146696;28;20043;-69
2023/04/29 00:51:05;;;;;;;13.98;5.90;;;13.60;99.90;;;13.62;100.00;100743.03;5173158;28;19921;-67
2023/04/29 00:53:39;;;;;;;12.07;5.65;;;13.50;99.90;;;13.54;100.00;100749.84;5145919;28;20067;-67
2023/04/29 00:56:13;;;;;;;13.80;6.03;;;13.50;99.90;;;13.48;100.00;100757.56;5151214;28;20129;-71
2023/04/29 00:58:48;;;;;;;11.63;5.30;;;13.40;99.90;;;13.47;100.00;100764.56;5152646;28;20507;-67
2023/04/29 01:01:23;;;;;;;10.73;5.38;;;13.40;99.90;;;13.46;100.00;100761.91;5144637;28;20050;-68
2023/04/29 01:03:55;;;;;;;13.48;5.47;;;13.40;99.90;;;13.44;100.00;100768.84;5144609;28;20446;-68
2023/04/29 01:06:41;;;;;;;11.65;5.22;;;13.40;99.90;;;13.43;100.00;100760.13;5145433;28;20047;-67
2023/04/29 01:09:33;;;;;;;13.93;5.75;;;13.40;99.90;;;13.43;100.00;100767.06;5149403;28;20042;-69
2023/04/29 01:12:16;;;;;;;10.32;4.80;;;13.40;99.90;;;13.44;100.00;100769.72;5140673;28;20043;-67
2023/04/29 01:14:54;;;;;;;10.27;4.55;;;13.40;99.90;;;13.45;100.00;100768.00;5140586;28;20146;-69
2023/04/29 01:17:37;;;;;;;13.75;5.93;;;13.40;99.90;;;13.44;100.00;100763.63;5149448;28;20047;-67
2023/04/29 01:20:11;;;;;;;11.18;5.20;;;13.30;99.90;;;13.43;100.00;100761.81;5150678;28;20038;-68
2023/04/29 01:22:43;;;;;;;11.00;5.18;;;13.40;99.90;;;13.41;100.00;100763.53;5148165;28;20495;-64
2023/04/29 01:25:18;;;;;;;11.07;5.72;;;13.40;99.90;;;13.41;100.00;100760.91;5147369;28;20031;-68
2023/04/29 01:28:14;;;;;;;12.02;5.90;;;13.30;99.90;;;13.40;100.00;100767.00;5140226;28;20055;-69
2023/04/29 01:30:56;;;;;;;10.82;4.93;;;13.30;99.90;;;13.38;100.00;100766.09;5143384;28;20046;-69
2023/04/29 01:33:46;;;;;;;11.20;5.10;;;13.30;99.90;;;13.38;100.00;100772.22;5151829;28;20057;-70
2023/04/29 01:36:31;;;;;;;13.23;5.47;;;13.30;99.90;;;13.40;100.00;100782.72;5153246;28;20491;-67
2023/04/29 01:39:13;;;;;;;15.77;7.22;;;13.30;99.90;;;13.37;100.00;100782.66;5143715;28;20038;-68
2023/04/29 01:41:57;;;;;;;14.15;6.53;;;13.30;99.90;;;13.33;100.00;100781.69;5144614;28;20057;-68
2023/04/29 01:44:34;;;;;;;14.15;6.22;;;13.20;99.90;;;13.32;100.00;100784.28;5135071;28;20161;-69
2023/04/29 01:47:07;;;;;;;12.93;6.00;;;13.20;99.90;;;13.29;100.00;100785.94;5159916;28;20042;-69
2023/04/29 01:49:46;;;;;;;15.15;6.28;;;13.20;99.90;;;13.29;100.00;100785.94;5143698;28;20134;-70
2023/04/29 01:52:18;;;;;;;16.50;7.20;;;13.20;99.90;;;13.26;100.00;100788.50;5152282;28;20055;-69
2023/04/29 01:54:58;;;;;;;15.77;7.55;;;13.10;99.90;;;13.23;100.00;100791.03;5153039;28;20039;-67
2023/04/29 01:57:36;;;;;;;12.40;5.53;;;13.20;99.90;;;13.20;100.00;100788.38;5150017;28;20138;-70
2023/04/29 02:00:19;;;;;;;13.27;5.97;;;13.10;99.90;;;13.18;100.00;100786.53;5156519;28;20042;-67
2023/04/29 02:02:56;;;;;;;12.93;6.32;;;13.10;99.90;;;13.14;100.00;100797.75;5146102;28;20050;-68
2023/04/29 02:05:43;;;;;;;17.30;7.40;;;13.10;99.90;;;13.09;100.00;100787.19;5131550;28;20094;-68
2023/04/29 02:08:15;;;;;;;15.88;7.55;;;13.00;99.90;;;13.07;100.00;100794.13;5154533;28;20039;-68
2023/04/29 02:10:54;;;;;;;14.35;6.65;;;13.00;99.90;;;13.03;100.00;100798.38;5144633;28;20122;-67
2023/04/29 02:13:53;;;;;;;19.65;8.63;;;13.00;99.90;;;13.01;100.00;100793.97;5134463;28;20043;-68
2023/04/29 02:16:27;;;;;;;14.90;7.05;;;12.90;99.90;;;13.00;100.00;100802.66;5174010;28;20127;-67
2023/04/29 02:19:08;;;;;;;16.42;7.65;;;12.90;99.90;;;12.95;100.00;100794.69;5143228;28;20074;-70
2023/04/29 02:21:44;;;;;;;17.88;8.23;;;12.90;99.90;;;12.95;100.00;100793.81;5143200;28;20054;-66
2023/04/29 02:24:16;;;;;;;18.13;8.32;;;12.90;99.90;;;12.96;100.00;100808.66;5142845;28;20126;-70
2023/04/29 02:26:48;;;;;;;19.88;9.07;;;12.90;99.90;;;12.96;100.00;100800.81;5155396;28;20038;-69
2023/04/29 02:29:22;;;;;;;23.73;10.35;;;12.90;99.90;;;12.93;100.00;100805.97;5147441;28;20426;-67
2023/04/29 02:31:56;;;;;;;22.90;9.48;;;12.90;99.90;;;12.89;100.00;100807.63;5143328;28;20050;-65
2023/04/29 02:34:28;;;;;;;17.38;8.63;;;12.80;99.90;;;12.88;100.00;100802.34;5143415;28;20064;-67
2023/04/29 02:37:00;;;;;;;26.40;11.02;;;12.80;99.90;;;12.84;100.00;100816.19;5151336;28;20045;-69
2023/04/29 02:39:32;;;;;;;23.55;10.25;;;12.80;99.90;;;12.84;100.00;100817.06;5142725;28;20047;-67
2023/04/29 02:42:04;;;;;;;22.88;10.65;;;12.80;99.90;;;12.83;100.00;100815.31;5150725;28;20061;-67
2023/04/29 02:44:38;;;;;;;21.73;9.82;;;12.80;99.90;;;12.85;100.00;100823.22;5152598;28;20054;-68
2023/04/29 02:47:10;;;;;;;19.98;8.95;;;12.80;99.90;;;12.88;100.00;100818.03;5148486;28;20438;-67
2023/04/29 02:49:43;;;;;;;19.38;8.82;;;12.80;99.90;;;12.87;100.00;100821.50;5142622;28;20039;-70
2023/04/29 02:52:15;;;;;;;16.50;7.57;;;12.80;99.90;;;12.87;100.00;100824.13;5142796;28;20038;-69
2023/04/29 02:54:47;;;;;;;17.55;8.55;;;12.80;99.90;;;12.91;100.00;100820.72;5141023;28;20134;-68
2023/04/29 02:57:20;;;;;;;16.70;7.15;;;12.80;99.90;;;12.97;100.00;100823.50;5150964;28;20030;-69
2023/04/29 02:59:53;;;;;;;17.40;8.13;;;12.90;99.90;;;12.97;100.00;100823.50;5162542;28;20124;-69
2023/04/29 03:02:25;;;;;;;19.10;7.93;;;12.90;99.90;;;12.96;100.00;100833.09;5146630;28;20057;-67
2023/04/29 03:05:02;;;;;;;23.65;9.05;;;12.90;99.90;;;12.98;100.00;100822.69;5142573;28;20411;-68
2023/04/29 03:07:34;;;;;;;29.35;12.10;;;12.90;99.90;;;12.94;100.00;100826.06;5143534;28;20039;-68
2023/04/29 03:10:08;;;;;;;20.95;8.63;;;12.90;99.90;;;12.94;100.00;100829.56;5150505;28;20043;-67
2023/04/29 03:12:45;;;;;;;20.20;9.13;;;12.90;99.90;;;12.95;100.00;100827.81;5136754;28;20047;-68
2023/04/29 03:15:18;;;;;;;22.65;9.68;;;12.90;99.90;;;12.96;100.00;100832.19;5147599;28;20043;-68
2023/04/29 03:17:51;;;;;;;25.00;10.68;;;12.90;99.90;;;12.91;100.00;100828.56;5142471;28;20082;-68
2023/04/29 03:20:23;;;;;;;23.30;10.07;;;12.90;99.90;;;12.88;100.00;100829.41;5150224;28;20051;-68
2023/04/29 03:22:56;;;;;;;22.10;10.25;;;12.90;99.90;;;12.88;100.00;100844.22;5150418;28;20519;-66
2023/04/29 03:25:29;;;;;;;23.77;10.10;;;12.90;99.90;;;12.90;100.00;100838.16;5150341;28;20050;-66
2023/04/29 03:28:02;;;;;;;24.95;10.02;;;12.80;99.90;;;12.89;100.00;100838.13;5165755;28;20042;-69
2023/04/29 03:30:37;;;;;;;;;;;12.80;99.90;;;12.85;100.00;100837.19;5150654;28;20208;-66
2023/04/29 03:33:09;;;;;;;19.83;9.25;;;12.80;99.90;;;12.86;100.00;100840.69;5164437;28;19922;-68
2023/04/29 03:35:41;;;;;;;23.75;10.20;;;12.80;99.90;;;12.82;100.00;100838.81;5144088;28;20479;-67
2023/04/29 03:38:20;;;;;;;24.23;10.30;;;12.70;99.90;;;12.75;100.00;100840.38;5143750;28;20051;-67
2023/04/29 03:40:53;;;;;;;29.17;12.90;;;12.70;99.90;;;12.73;100.00;100840.34;5141996;28;20526;-68
2023/04/29 03:43:26;;;;;;;25.42;10.52;;;12.70;99.90;;;12.70;100.00;100844.59;5134460;28;20074;-68
2023/04/29 03:45:59;;;;;;;26.88;11.32;;;12.60;99.90;;;12.66;100.00;100837.53;5134322;28;20133;-69
2023/04/29 03:48:31;;;;;;;24.92;11.27;;;12.60;99.90;;;12.61;100.00;100849.59;5166341;28;20137;-69
2023/04/29 03:51:04;;;;;;;27.73;10.77;;;12.60;99.90;;;12.58;100.00;100845.13;5137182;28;20058;-67
2023/04/29 03:53:36;;;;;;;26.63;11.32;;;12.50;99.90;;;12.56;100.00;100846.84;5130053;28;20137;-69
2023/04/29 03:56:10;;;;;;;28.85;12.00;;;12.50;99.90;;;12.55;100.00;100844.19;5138086;28;20054;-70
2023/04/29 03:58:42;;;;;;;28.17;11.40;;;12.50;99.90;;;12.51;100.00;100851.06;5156029;28;20047;-70
2023/04/29 04:01:17;;;;;;;27.00;10.73;;;12.50;99.90;;;12.48;100.00;100848.38;5151747;28;20427;-68
2023/04/29 04:03:51;;;;;;;28.25;10.82;;;12.40;99.90;;;12.46;100.00;100850.06;5121847;29;20408;-67
2023/04/29 04:06:23;;;;;;;34.97;13.80;;;12.40;99.90;;;12.45;100.00;100851.78;5137365;28;20434;-69
2023/04/29 04:08:56;;;;;;;30.50;11.18;;;12.40;99.90;;;12.43;100.00;100860.41;5141374;28;20054;-67
2023/04/29 04:11:33;;;;;;;37.47;14.18;;;12.40;99.90;;;12.40;100.00;100865.56;5140503;28;20047;-67
2023/04/29 04:14:08;;;;;;;33.05;13.20;;;12.30;99.90;;;12.38;100.00;100860.28;5131815;28;20134;-67
2023/04/29 04:16:42;;;;;;;38.67;14.05;;;12.30;99.90;;;12.36;100.00;100876.78;5135976;28;20053;-69
2023/04/29 04:19:14;;;;;;;33.38;13.55;;;12.30;99.90;;;12.30;100.00;100880.09;5159358;28;20042;-67
2023/04/29 04:21:49;;;;;;;;;;;12.20;99.90;;;12.31;100.00;100870.50;5161961;28;20055;-68
2023/04/29 04:24:21;;;;;;;33.20;12.02;;;12.20;99.90;;;12.28;100.00;100880.91;5182022;23;20306;-80
2023/04/29 04:26:53;;;;;;;30.25;12.52;;;12.20;99.90;;;12.22;100.00;100877.25;5159736;28;20035;-79
2023/04/29 04:29:35;;;;;;;38.92;11.82;;;12.20;99.90;;;12.12;100.00;100885.66;5187642;28;20472;-79
2023/04/29 04:32:14;;;;;;;33.30;12.18;;;12.20;99.90;;;12.05;100.00;100894.16;5187106;28;20061;-80
2023/04/29 04:34:46;;;;;;;42.35;13.60;;;12.10;99.90;;;11.98;100.00;100896.53;5163053;28;20077;-79
2023/04/29 04:37:18;;;;;;;36.92;13.40;;;12.10;99.90;;;11.90;100.00;100889.34;5170876;28;20034;-79
2023/04/29 04:39:55;;;;;;;38.65;12.80;;;12.00;99.90;;;11.84;100.00;100893.50;5169010;28;20052;-79
2023/04/29 04:42:28;;;;;;;34.22;11.95;;;11.90;99.90;;;11.84;100.00;100898.72;5185135;28;20504;-80
2023/04/29 04:45:03;;;;;;;36.45;12.60;;;11.90;99.90;;;11.86;100.00;100907.47;5186269;28;20050;-79
2023/04/29 04:47:50;;;;;;;35.53;12.00;;;11.90;99.90;;;11.87;100.00;100909.28;5170525;28;20119;-78
2023/04/29 04:50:31;;;;;;;36.22;13.02;;;11.90;99.90;;;11.86;100.00;100913.59;5169009;28;20045;-79
2023/04/29 04:53:03;;;;;;;34.45;12.20;;;11.90;99.90;;;11.88;100.00;100916.28;5162404;28;20053;-78
2023/04/29 04:55:48;;;;;;;37.35;12.25;;;11.90;99.90;;;11.89;100.00;100918.03;5177473;28;20073;-79
2023/04/29 04:58:21;;;;;;;36.15;11.77;;;11.90;99.90;;;11.88;100.00;100926.72;5168820;28;20042;-78
2023/04/29 05:00:53;;;;;;;34.08;11.20;;;11.90;99.90;;;11.86;100.00;100928.38;5166917;28;20543;-78
2023/04/29 05:03:27;;;;;;;35.63;12.90;;;11.90;99.90;;;11.83;100.00;100930.91;5168531;28;20065;-79
2023/04/29 05:06:01;;;;;;;27.67;10.35;;;11.80;99.90;;;11.82;100.00;100931.75;5168287;28;20077;-80
2023/04/29 05:08:33;;;;;;;33.28;11.93;;;11.90;99.90;;;11.79;100.00;100926.38;5168022;28;20122;-78
2023/04/29 05:11:17;;;;;;;35.75;11.70;;;11.90;99.90;;;11.78;100.00;100940.28;5164789;28;20050;-79
2023/04/29 05:13:50;;;;;;;34.50;11.05;;;11.80;99.90;;;11.75;100.00;100941.06;5163989;28;20070;-77
2023/04/29 05:16:25;;;;;;;33.15;11.60;;;11.80;99.90;;;11.74;100.00;100948.88;5167593;28;20177;-79
2023/04/29 05:18:58;;;;;;;31.52;12.23;;;11.80;99.90;;;11.71;100.00;100956.59;5170207;28;20080;-79
2023/04/29 05:21:35;;;;;;;36.85;12.68;;;11.80;99.90;;;11.64;100.00;100950.28;5169662;28;20535;-79
2023/04/29 05:24:07;;;;;;;30.77;11.35;;;11.70;99.90;;;11.61;100.00;100964.13;5158775;28;20051;-80
2023/04/29 05:26:40;;;;;;;31.98;12.27;;;11.70;99.90;;;11.60;100.00;100966.66;5158580;28;20042;-79
2023/04/29 05:29:13;;;;;;;28.92;11.25;;;11.70;99.90;;;11.60;100.00;100967.56;5167861;28;20038;-79
2023/04/29 05:31:53;;;;;;;27.05;9.95;;;11.70;99.90;;;11.57;100.00;100972.69;5165911;28;20599;-79
2023/04/29 05:34:26;;;;;;;31.05;10.65;;;11.70;99.90;;;11.57;100.00;100966.59;5165077;28;20054;-79
2023/04/29 05:36:58;;;;;;;27.80;10.10;;;11.60;99.90;;;11.58;100.00;100977.06;5162300;28;20100;-79
2023/04/29 05:39:31;;;;;;;25.00;9.68;;;11.60;99.90;;;11.63;100.00;100978.13;5154375;28;20195;-79
2023/04/29 05:42:13;;;;;;;27.77;10.60;;;11.70;99.90;;;11.65;100.00;100981.66;5163279;28;20533;-79
2023/04/29 05:44:50;;;;;;;26.92;8.85;;;11.70;99.90;;;11.66;100.00;100982.53;5165909;28;20061;-79
2023/04/29 05:47:22;;;;;;;24.30;8.55;;;11.70;99.90;;;11.67;100.00;100984.31;5159363;28;20042;-79
2023/04/29 05:49:56;;;;;;;25.38;9.13;;;11.70;99.90;;;11.68;100.00;100986.13;5173329;28;20053;-79
2023/04/29 05:52:28;;;;;;;23.55;8.95;;;11.70;99.90;;;11.72;100.00;100998.41;5170072;28;20088;-79
2023/04/29 05:55:00;;;;;;;20.85;8.13;;;11.80;99.90;;;11.71;100.00;101007.09;5164378;28;20142;-81
2023/04/29 05:57:33;;;;;;;19.52;7.60;;;11.80;99.90;;;11.73;100.00;101004.53;5176577;28;20069;-81
2023/04/29 06:00:07;;;;;;;22.70;8.63;;;11.80;99.90;;;11.68;100.00;101007.88;5179160;28;20070;-79
2023/04/29 06:02:45;;;;;;;21.30;8.00;;;11.70;99.90;;;11.67;100.00;101003.50;5174856;28;20050;-80
2023/04/29 06:05:20;;;;;;;22.08;7.75;;;11.70;99.90;;;11.67;100.00;101016.56;5175490;28;20042;-79
2023/04/29 06:08:11;;;;;;;22.27;8.57;;;11.70;99.90;;;11.68;100.00;101013.13;5169721;28;20131;-81
2023/04/29 06:10:51;;;;;;;20.75;7.78;;;11.70;99.90;;;11.70;100.00;101018.38;5172399;28;20061;-80
2023/04/29 06:13:23;;;;;;;19.73;7.60;;;11.70;99.90;;;11.73;100.00;101028.03;5156260;28;20055;-79
2023/04/29 06:15:55;;;;;;;16.42;7.03;;;11.80;99.90;;;11.78;100.00;101032.56;5168422;28;20050;-81
2023/04/29 06:18:28;;;;;;;19.70;6.97;;;11.80;99.90;;;11.82;100.00;101036.22;5167185;28;20456;-80
2023/04/29 06:21:02;;;;;;;17.85;7.68;;;11.80;99.90;;;11.83;100.00;101035.38;5171591;28;20432;-80
2023/04/29 06:23:34;;;;;;;17.08;7.18;;;11.80;99.90;;;11.84;100.00;101037.16;5171422;28;20145;-80
2023/04/29 06:26:12;;;;;;;16.13;6.60;;;11.80;99.90;;;11.84;100.00;101051.09;5164770;28;20104;-80
2023/04/29 06:28:44;;;;;;;16.95;6.97;;;11.90;99.90;;;11.83;100.00;101049.34;5163809;28;20114;-81
2023/04/29 06:31:17;;;;;;;18.92;6.53;;;11.80;99.90;;;11.82;100.00;101054.50;5164897;28;20138;-80
2023/04/29 06:33:50;;;;;;;18.00;7.28;;;11.80;99.90;;;11.80;100.00;101050.91;5168639;28;20073;-81
2023/04/29 06:36:24;;;;;;;17.90;7.75;;;11.80;99.90;;;11.78;100.00;101060.41;5171028;28;20066;-80
2023/04/29 06:39:25;;;;;;;17.65;7.10;;;11.80;99.90;;;11.78;100.00;101063.03;5158025;28;20050;-81
2023/04/29 06:42:20;;;;;;;16.08;6.30;;;11.80;99.90;;;11.80;100.00;101059.66;5163760;28;20046;-86
2023/04/29 06:45:12;;;;;;;16.45;6.25;;;11.80;99.90;;;11.84;100.00;101072.00;5162530;28;20042;-86
2023/04/29 06:47:47;;;;;;;13.48;5.30;;;11.80;99.90;;;11.84;100.00;101071.13;5152676;28;20062;-85
2023/04/29 06:50:29;;;;;;;13.02;6.03;;;11.80;99.90;;;11.84;100.00;101072.00;5170086;28;20050;-86
2023/04/29 06:53:02;;;;;;;16.05;6.32;;;11.80;99.90;;;11.86;100.00;101072.03;5169389;28;20053;-84
2023/04/29 06:55:35;;;;;;;15.57;6.60;;;11.90;99.90;;;11.89;100.00;101080.00;5169791;28;20042;-86
2023/04/29 06:58:08;;;;;;;13.77;5.60;;;11.90;99.90;;;11.86;100.00;101082.50;5162252;28;20044;-86
2023/04/29 07:00:41;;;;;;;13.70;5.88;;;11.90;99.90;;;11.87;100.00;101099.97;5168912;28;20081;-87
2023/04/29 07:03:13;;;;;;;15.60;6.20;;;11.90;99.90;;;11.88;100.00;101088.69;5180339;28;20045;-87
2023/04/29 07:05:45;;;;;;;14.93;6.28;;;11.90;99.90;;;11.90;100.00;101092.22;5170507;28;20053;-87
2023/04/29 07:08:19;;;;;;;15.55;7.15;;;11.90;99.90;;;11.93;100.00;101092.31;5170491;28;20050;-89
2023/04/29 07:10:55;;;;;;;11.82;5.40;;;11.90;99.90;;;11.97;100.00;101099.44;5171256;28;20045;-87
2023/04/29 07:13:29;;;;;;;12.70;5.50;;;11.90;99.90;;;12.03;100.00;101099.63;5170906;28;20050;-87
2023/04/29 07:16:01;;;;;;;13.07;5.95;;;12.00;99.90;;;12.11;100.00;101108.59;5159471;28;20105;-87
2023/04/29 07:18:33;;;;;;;12.27;5.43;;;12.10;99.90;;;12.42;100.00;101100.06;5165897;28;20061;-88
2023/04/29 07:21:05;;;;;;;13.18;5.65;;;12.40;99.90;;;12.53;100.00;101110.88;5172425;28;20046;-88
2023/04/29 07:23:39;;;;;;;16.70;6.20;;;12.50;99.90;;;12.51;100.00;101120.38;5172506;28;20428;-86
2023/04/29 07:26:12;;;;;;;13.05;5.75;;;12.50;99.90;;;12.43;100.00;101127.09;5169031;28;20057;-88
2023/04/29 07:28:45;;;;;;;12.35;5.85;;;12.40;99.90;;;12.35;100.00;101131.19;5169780;28;20046;-86
2023/04/29 07:31:17;;;;;;;14.40;6.35;;;12.40;99.90;;;12.26;100.00;101128.25;5171051;28;20043;-85
2023/04/29 07:33:49;;;;;;;13.25;5.68;;;12.30;99.90;;;12.21;100.00;101130.72;5162950;28;20055;-86
2023/04/29 07:36:22;;;;;;;15.30;6.30;;;12.30;99.90;;;12.23;100.00;101135.16;5173116;28;20468;-85
2023/04/29 07:38:55;;;;;;;13.50;5.55;;;12.20;99.90;;;12.27;100.00;101135.28;5171891;28;20046;-85
2023/04/29 07:41:28;;;;;;;12.82;5.85;;;12.30;99.90;;;12.30;100.00;101135.38;5168290;28;20051;-86
2023/04/29 07:44:00;;;;;;;14.55;6.63;;;12.30;99.90;;;12.33;100.00;101141.59;5174132;28;20057;-86
2023/04/29 07:46:32;;;;;;;15.48;6.32;;;12.30;99.90;;;12.36;100.00;101140.81;5169543;28;20061;-85
2023/04/29 07:49:05;;;;;;;15.40;6.57;;;12.30;99.90;;;12.38;100.00;101140.00;5163907;28;20069;-85
2023/04/29 07:51:37;;;;;;;15.52;5.90;;;12.30;99.90;;;12.41;100.00;101144.47;5163216;28;20415;-86
2023/04/29 07:54:11;;;;;;;15.77;7.57;;;12.40;99.90;;;12.42;100.00;101146.22;5167051;28;20046;-86
2023/04/29 07:56:43;;;;;;;18.38;8.15;;;12.40;99.90;;;12.42;100.00;101143.63;5172452;28;20111;-84
2023/04/29 07:59:15;;;;;;;14.98;6.82;;;12.40;99.90;;;12.39;100.00;101146.16;5166298;28;20505;-84
2023/04/29 08:01:48;;;;;;;16.08;8.05;;;12.40;99.90;;;12.42;100.00;101143.63;5181169;28;20054;-84
2023/04/29 08:04:20;;;;;;;18.73;8.85;;;12.40;99.90;;;12.42;100.00;101151.47;5173214;28;20551;-84
2023/04/29 08:06:58;;;;;;;18.20;9.13;;;12.40;99.90;;;12.41;100.00;101154.91;5170969;28;20058;-85
2023/04/29 08:09:31;;;;;;;17.98;8.38;;;12.40;99.90;;;12.42;100.00;101156.69;5168164;28;20495;-84
2023/04/29 08:12:03;;;;;;;19.92;9.65;;;12.40;99.90;;;12.37;100.00;101160.88;5172042;28;20093;-85
2023/04/29 08:14:35;;;;;;;20.90;9.05;;;12.40;99.90;;;12.32;100.00;101157.22;5171002;28;20057;-85
2023/04/29 08:17:08;;;;;;;20.13;9.25;;;12.30;99.90;;;12.33;100.00;101162.50;5162219;28;20047;-84
2023/04/29 08:19:41;;;;;;;17.67;8.90;;;12.30;99.90;;;12.33;100.00;101162.50;5157734;28;20078;-83
2023/04/29 08:22:13;;;;;;;14.85;7.40;;;12.30;99.90;;;12.43;100.00;101166.31;5167642;28;20039;-84
2023/04/29 08:24:47;;;;;;;16.17;7.80;;;12.40;99.90;;;12.50;100.00;101173.50;5177360;28;20046;-86
2023/04/29 08:27:20;;;;;;;16.23;7.53;;;12.50;99.90;;;12.49;100.00;101177.84;5170275;28;20046;-84
2023/04/29 08:29:52;;;;;;;20.05;9.82;;;12.50;99.90;;;12.47;100.00;101173.44;5162892;28;20046;-84
2023/04/29 08:32:24;;;;;;;18.23;8.70;;;12.50;99.90;;;12.48;100.00;101183.03;5168955;28;20046;-85
2023/04/29 08:34:56;;;;;;;18.13;8.43;;;12.50;99.90;;;12.47;100.00;101178.66;5164349;28;20073;-84
2023/04/29 08:37:28;;;;;;;18.45;8.45;;;12.50;99.90;;;12.53;100.00;101181.47;5165501;28;20073;-84
2023/04/29 08:40:02;;;;;;;18.25;9.32;;;12.50;99.90;;;12.55;100.00;101185.00;5180479;28;20076;-82
2023/04/29 08:42:36;;;;;;;16.83;8.52;;;12.50;99.90;;;12.52;100.00;101190.16;5166050;28;20042;-84
2023/04/29 08:45:10;;;;;;;18.52;8.90;;;12.50;99.90;;;12.55;100.00;101185.00;5163374;28;20065;-84
2023/04/29 08:47:42;;;;;;;16.08;8.00;;;12.50;99.90;;;12.56;100.00;101188.50;5180238;28;20042;-83
2023/04/29 08:50:15;;;;;;;16.38;6.53;;;12.60;99.90;;;12.61;100.00;101194.78;5162723;28;20042;-84
2023/04/29 08:52:47;;;;;;;17.45;8.57;;;12.60;99.90;;;12.75;100.00;101193.50;5171080;28;20051;-82
2023/04/29 08:55:20;;;;;;;17.42;7.70;;;12.70;99.90;;;12.73;100.00;101198.69;5156264;28;20051;-86
2023/04/29 08:57:56;;;;;;;19.00;8.50;;;12.70;99.90;;;12.72;100.00;101203.88;5167874;28;20688;-84
2023/04/29 09:00:31;;;;;;;19.63;9.48;;;12.70;99.90;;;12.67;100.00;101206.34;5161856;28;20483;-84
2023/04/29 09:03:14;;;;;;;19.13;7.70;;;12.60;99.90;;;12.62;100.00;101207.91;5170370;28;20057;-85
2023/04/29 09:05:49;;;;;;;17.65;7.72;;;12.60;99.90;;;12.61;100.00;101210.50;5169550;28;20046;-83
2023/04/29 09:08:22;;;;;;;19.90;9.75;;;12.60;99.90;;;12.65;100.00;101205.41;5179246;28;20039;-87
2023/04/29 09:10:58;;;;;;;22.83;9.85;;;12.60;99.90;;;12.81;100.00;101205.91;5176427;28;20047;-82
2023/04/29 09:13:32;;;;;;;25.55;10.65;;;12.70;99.90;;;12.93;100.00;101207.19;5173545;28;20049;-83
2023/04/29 09:16:05;;;;;;;26.73;10.50;;;12.80;99.90;;;13.20;100.00;101215.03;5171553;28;20485;-83
2023/04/29 09:18:48;;;;;;;25.25;10.25;;;13.00;99.90;;;13.48;100.00;101218.47;5169383;28;20101;-83
2023/04/29 09:21:23;;;;;;;21.40;8.88;;;13.20;99.90;;;13.59;100.00;101206.59;5168309;28;20518;-84
2023/04/29 09:23:57;;;;;;;24.00;10.35;;;13.40;99.90;;;13.65;100.00;101217.25;5171583;28;20053;-87
2023/04/29 09:26:43;;;;;;;22.70;9.40;;;13.50;99.90;;;13.72;100.00;101221.81;5171425;28;20043;-86
2023/04/29 09:29:17;;;;;;;24.75;10.10;;;13.50;99.90;;;13.75;100.00;101221.91;5161819;28;20070;-85
2023/04/29 09:31:50;;;;;;;23.27;10.38;;;13.60;99.90;;;13.78;100.00;101229.88;5160433;28;20050;-86
2023/04/29 09:34:32;;;;;;;21.58;9.65;;;13.70;99.90;;;13.76;100.00;101225.44;5164091;28;20042;-84
2023/04/29 09:37:04;;;;;;;22.85;9.10;;;13.70;99.90;;;13.62;100.00;101230.25;5155019;28;20061;-84
2023/04/29 09:39:39;;;;;;;18.13;7.97;;;13.60;99.90;;;13.52;100.00;101230.84;5162276;28;20047;-84
2023/04/29 09:42:13;;;;;;;19.38;8.15;;;13.50;99.90;;;13.46;100.00;101228.03;5164633;28;20130;-83
2023/04/29 09:44:45;;;;;;;19.42;8.48;;;13.50;99.90;;;13.37;100.00;101233.00;5164835;28;20054;-83
2023/04/29 09:47:17;;;;;;;21.33;8.23;;;13.30;99.90;;;13.33;100.00;101233.75;5146862;28;20413;-83
2023/04/29 09:49:49;;;;;;;20.55;8.40;;;13.30;99.90;;;13.29;100.00;101235.38;5147173;28;20057;-84
2023/04/29 09:52:21;;;;;;;18.95;8.48;;;13.30;99.90;;;13.25;100.00;101242.25;5147032;28;20051;-85
2023/04/29 09:55:05;;;;;;;18.13;8.00;;;13.20;99.90;;;13.21;100.00;101243.00;5147994;28;20062;-84
2023/04/29 09:57:41;;;;;;;17.55;8.10;;;13.20;99.90;;;13.17;100.00;101250.66;5147518;28;20073;-84
2023/04/29 10:00:14;;;;;;;16.70;8.40;;;13.20;99.90;;;13.07;100.00;101253.84;5154640;28;20051;-83
2023/04/29 10:02:48;;;;;;;17.20;8.35;;;13.10;99.90;;;13.03;100.00;101258.06;5166019;28;20129;-83
2023/04/29 10:05:22;;;;;;;20.90;8.90;;;13.00;99.90;;;12.97;100.00;101258.75;5164148;28;20457;-83
2023/04/29 10:07:55;;;;;;;19.48;9.05;;;12.90;99.90;;;12.95;100.00;101257.84;5153704;28;20051;-82
2023/04/29 10:10:28;;;;;;;17.35;8.38;;;13.00;99.90;;;12.94;100.00;101257.78;5158991;28;20129;-83
2023/04/29 10:13:02;;;;;;;17.13;8.40;;;12.90;99.90;;;12.97;100.00;101258.75;5166158;28;20089;-84
2023/04/29 10:15:44;;;;;;;14.45;7.95;;;12.90;99.90;;;13.01;100.00;101262.38;5167693;28;20536;-83
2023/04/29 10:18:21;;;;;;;15.65;6.97;;;13.00;99.90;;;13.02;100.00;101266.78;5158946;28;20144;-84
2023/04/29 10:20:57;;;;;;;18.73;9.48;;;13.00;99.90;;;12.99;100.00;101271.91;5150482;28;20051;-82
2023/04/29 10:23:30;;;;;;;15.63;8.23;;;13.00;99.90;;;12.98;100.00;101273.66;5148325;28;20089;-83
2023/04/29 10:26:03;;;;;;;23.15;11.18;;;12.90;99.90;;;12.94;100.00;101277.00;5192231;23;20049;-82
2023/04/29 10:28:39;;;;;;;23.17;10.48;;;12.90;99.90;;;12.89;100.00;101285.53;5170687;28;20049;-83
2023/04/29 10:31:13;;;;;;;21.90;10.60;;;12.90;99.90;;;12.88;100.00;101283.75;5176685;28;20527;-84